Kaami — C6VO9 — position and weather

sailwx.info

Track history (hours):
 
Tides and Currents Weather Stations Pressure Air Temp Water Temp Dewpoint Dewpoint Depression Visibility Wind Speed Wind Dir Waves Ship Positions

Kaami

Last reported at 2015-Sep-04 02:18 UTC. Time now 2015-Sep-04 07:51 UTC.
Position N 51°20' E 002°09'.

Length 90 m; draft 3.5 m.

Type: Cargo ship. MMSI: 308542000.

Date/timePositionNaut miles runAvg speedWind from/ knotsBaromVisibWave heightAir tempDewpointWater temp
2015-Sep-04 02:18N 51°20' E 002°09'810.3
2015-Sep-04 01:33N 51°13' E 002°02'9 9.5
2015-Sep-04 00:33N 51°08' E 001°50'8 8.2
2015-Sep-03 23:33N 51°02' E 001°41'7 7.4
2015-Sep-03 22:33N 50°56' E 001°33'7 7.1
2015-Sep-03 21:33N 50°50' E 001°27'  
2015-Aug-31 22:07N 50°31' E 000°17'4 6.5
2015-Aug-31 21:30N 50°32' E 000°23'7 7.6
2015-Aug-31 20:33N 50°34' E 000°34'2010.0
2015-Aug-31 18:33N 50°45' E 001°01'1110.8
2015-Aug-31 17:33N 50°52' E 001°13'10 9.7
2015-Aug-31 16:33N 50°59' E 001°24'8 8.1
2015-Aug-31 15:33N 51°05' E 001°33'6 6.5
2015-Aug-31 14:33N 51°09' E 001°40'6 6.1
2015-Aug-31 13:33N 51°14' E 001°47'7 6.8
2015-Aug-31 12:33N 51°19' E 001°54'8 8.4
2015-Aug-31 11:33N 51°27' E 002°00'1010.2
2015-Aug-31 10:33N 51°35' E 002°10'156 9.0
2015-Aug-30 17:20N 53°33' E 004°57'7 8.3
2015-Aug-30 16:32N 53°36' E 005°07'9 9.2
2015-Aug-30 15:33N 53°41' E 005°19'1010.1
2015-Aug-30 14:33N 53°48' E 005°32'1010.0
2015-Aug-30 13:33N 53°53' E 005°46'10 9.9
2015-Aug-30 12:32N 53°57' E 006°02'9 9.2
2015-Aug-30 11:33N 54°03' E 006°14'42 8.5
2015-Aug-30 06:32N 54°37' E 006°58'9 9.1
2015-Aug-30 05:33N 54°44' E 007°08'18 9.0
2015-Aug-30 03:33N 54°57' E 007°28'8 8.4
2015-Aug-30 02:33N 55°04' E 007°38'8 8.1
2015-Aug-30 01:33N 55°10' E 007°48'9 8.0
2015-Aug-30 00:25N 55°16' E 007°59'7 7.9
2015-Aug-29 23:34N 55°21' E 008°07'8 7.7
2015-Aug-29 22:33N 55°27' E 008°17'5 5.0
2015-Aug-29 21:33N 55°28' E 008°25'1 1.0
2015-Aug-29 20:33N 55°28' E 008°27'0 0.0
2015-Aug-29 19:27N 55°28' E 008°27'0 0.0
2015-Aug-29 18:33N 55°28' E 008°27'0 0.0
2015-Aug-29 17:27N 55°28' E 008°27'0 0.0
2015-Aug-29 16:33N 55°28' E 008°27'0 0.0
2015-Aug-29 15:21N 55°28' E 008°27'0 0.0
2015-Aug-29 14:32N 55°28' E 008°27'0 0.0
2015-Aug-29 13:26N 55°28' E 008°27'0 0.0
2015-Aug-29 12:26N 55°28' E 008°27'0 0.0
2015-Aug-29 11:23N 55°28' E 008°27'0 0.0
2015-Aug-29 10:26N 55°28' E 008°27'1 1.2
2015-Aug-29 09:33N 55°28' E 008°25'6 5.6
2015-Aug-29 08:33N 55°26' E 008°16'5 5.2
2015-Aug-29 07:33N 55°25' E 008°07'6 5.9
2015-Aug-29 06:33N 55°25' E 007°56'6 5.5
2015-Aug-29 05:33N 55°25' E 007°47'7 6.9
2015-Aug-29 04:33N 55°28' E 007°36'6 6.0
2015-Aug-29 03:33N 55°30' E 007°26'6 5.5
2015-Aug-29 02:33N 55°32' E 007°17'6 5.6
2015-Aug-29 01:33N 55°34' E 007°08'6 5.7
2015-Aug-29 00:28N 55°37' E 006°58'  
Track history (hours):
 
Tides and Currents Weather Stations Pressure Air Temp Water Temp Dewpoint Dewpoint Depression Visibility Wind Speed Wind Dir Waves Ship Positions

Kaami

Last reported at 2015-Sep-04 02:18 UTC. Time now 2015-Sep-04 07:51 UTC.
Position N 51°20' E 002°09'.

Length 90 m; draft 3.5 m.

Type: Cargo ship. MMSI: 308542000.

Date/timePositionNaut miles runAvg speedWind from/ knotsBaromVisibWave heightAir tempDewpointWater temp
2015-Sep-04 02:18N 51°20' E 002°09'810.3
2015-Sep-04 01:33N 51°13' E 002°02'9 9.5
2015-Sep-04 00:33N 51°08' E 001°50'8 8.2
2015-Sep-03 23:33N 51°02' E 001°41'7 7.4
2015-Sep-03 22:33N 50°56' E 001°33'7 7.1
2015-Sep-03 21:33N 50°50' E 001°27'  
2015-Aug-31 22:07N 50°31' E 000°17'4 6.5
2015-Aug-31 21:30N 50°32' E 000°23'7 7.6
2015-Aug-31 20:33N 50°34' E 000°34'2010.0
2015-Aug-31 18:33N 50°45' E 001°01'1110.8
2015-Aug-31 17:33N 50°52' E 001°13'10 9.7
2015-Aug-31 16:33N 50°59' E 001°24'8 8.1
2015-Aug-31 15:33N 51°05' E 001°33'6 6.5
2015-Aug-31 14:33N 51°09' E 001°40'6 6.1
2015-Aug-31 13:33N 51°14' E 001°47'7 6.8
2015-Aug-31 12:33N 51°19' E 001°54'8 8.4
2015-Aug-31 11:33N 51°27' E 002°00'1010.2
2015-Aug-31 10:33N 51°35' E 002°10'156 9.0
2015-Aug-30 17:20N 53°33' E 004°57'7 8.3
2015-Aug-30 16:32N 53°36' E 005°07'9 9.2
2015-Aug-30 15:33N 53°41' E 005°19'1010.1
2015-Aug-30 14:33N 53°48' E 005°32'1010.0
2015-Aug-30 13:33N 53°53' E 005°46'10 9.9
2015-Aug-30 12:32N 53°57' E 006°02'9 9.2
2015-Aug-30 11:33N 54°03' E 006°14'42 8.5
2015-Aug-30 06:32N 54°37' E 006°58'9 9.1
2015-Aug-30 05:33N 54°44' E 007°08'18 9.0
2015-Aug-30 03:33N 54°57' E 007°28'8 8.4
2015-Aug-30 02:33N 55°04' E 007°38'8 8.1
2015-Aug-30 01:33N 55°10' E 007°48'9 8.0
2015-Aug-30 00:25N 55°16' E 007°59'7 7.9
2015-Aug-29 23:34N 55°21' E 008°07'8 7.7
2015-Aug-29 22:33N 55°27' E 008°17'5 5.0
2015-Aug-29 21:33N 55°28' E 008°25'1 1.0
2015-Aug-29 20:33N 55°28' E 008°27'0 0.0
2015-Aug-29 19:27N 55°28' E 008°27'0 0.0
2015-Aug-29 18:33N 55°28' E 008°27'0 0.0
2015-Aug-29 17:27N 55°28' E 008°27'0 0.0
2015-Aug-29 16:33N 55°28' E 008°27'0 0.0
2015-Aug-29 15:21N 55°28' E 008°27'0 0.0
2015-Aug-29 14:32N 55°28' E 008°27'0 0.0
2015-Aug-29 13:26N 55°28' E 008°27'0 0.0
2015-Aug-29 12:26N 55°28' E 008°27'0 0.0
2015-Aug-29 11:23N 55°28' E 008°27'0 0.0
2015-Aug-29 10:26N 55°28' E 008°27'1 1.2
2015-Aug-29 09:33N 55°28' E 008°25'6 5.6
2015-Aug-29 08:33N 55°26' E 008°16'5 5.2
2015-Aug-29 07:33N 55°25' E 008°07'6 5.9
2015-Aug-29 06:33N 55°25' E 007°56'6 5.5
2015-Aug-29 05:33N 55°25' E 007°47'7 6.9
2015-Aug-29 04:33N 55°28' E 007°36'6 6.0
2015-Aug-29 03:33N 55°30' E 007°26'6 5.5
2015-Aug-29 02:33N 55°32' E 007°17'6 5.6
2015-Aug-29 01:33N 55°34' E 007°08'6 5.7
2015-Aug-29 00:28N 55°37' E 006°58'  

Dump ship's entire track history